Time;durP1;ratioP1;P1;durP2;ratioP2;P2;SDS_P1;SDS_P2;PMS_P1;PMS_P2;Temp;Humidity;BMP_temperature;BMP_pressure;BME280_temperature;BME280_humidity;BME280_pressure;Samples;Min_cycle;Max_cycle;Signal;HPM_P1;HPM_P2
2024/02/08 00:01:16;;;;;;;0.20;0.20;;;;;;;;;;5021158;28;20127;-89
2024/02/08 00:03:45;;;;;;;2.85;2.67;;;;;;;;;;5023552;28;20049;-89
2024/02/08 00:06:14;;;;;;;0.10;0.10;;;;;;;;;;5022411;28;20141;-89
2024/02/08 00:08:42;;;;;;;0.10;0.10;;;;;;;;;;5022672;28;20057;-90
2024/02/08 00:11:09;;;;;;;0.10;0.10;;;;;;;;;;5031851;28;20050;-89
2024/02/08 00:13:39;;;;;;;0.10;0.10;;;;;;;;;;5022129;28;20054;-89
2024/02/08 00:16:11;;;;;;;0.20;0.20;;;;;;;;;;5025349;28;20050;-90
2024/02/08 00:18:39;;;;;;;0.20;0.20;;;;;;;;;;5021368;28;20422;-90
2024/02/08 00:21:09;;;;;;;0.57;0.52;;;;;;;;;;5020576;28;20346;-90
2024/02/08 00:23:39;;;;;;;0.20;0.20;;;;;;;;;;5020118;28;20109;-89
2024/02/08 00:26:09;;;;;;;0.10;0.10;;;;;;;;;;5021050;28;20054;-89
2024/02/08 00:28:39;;;;;;;0.10;0.10;;;;;;;;;;5022103;28;20080;-89
2024/02/08 00:31:07;;;;;;;0.10;0.10;;;;;;;;;;5023189;28;20137;-89
2024/02/08 00:33:34;;;;;;;0.10;0.10;;;;;;;;;;5023329;28;20058;-89
2024/02/08 00:36:02;;;;;;;0.10;0.10;;;;;;;;;;5022805;28;20054;-89
2024/02/08 00:38:29;;;;;;;0.25;0.25;;;;;;;;;;5024257;28;20050;-89
2024/02/08 00:40:58;;;;;;;0.13;0.13;;;;;;;;;;5026191;28;20049;-89
2024/02/08 00:43:26;;;;;;;0.10;0.10;;;;;;;;;;5026083;28;20120;-88
2024/02/08 00:45:56;;;;;;;0.10;0.10;;;;;;;;;;5026517;28;20045;-90
2024/02/08 00:48:24;;;;;;;0.20;0.20;;;;;;;;;;5026465;28;20050;-89
2024/02/08 00:50:54;;;;;;;0.10;0.10;;;;;;;;;;5027981;28;20056;-90
2024/02/08 00:53:22;;;;;;;0.20;0.20;;;;;;;;;;5025255;28;20062;-89
2024/02/08 00:55:49;;;;;;;0.10;0.10;;;;;;;;;;5033239;28;20060;-89
2024/02/08 00:58:16;;;;;;;0.10;0.10;;;;;;;;;;5037408;28;20041;-90
2024/02/08 01:00:52;;;;;;;0.10;0.10;;;;;;;;;;5033464;28;20050;-90
2024/02/08 01:03:24;;;;;;;0.10;0.10;;;;;;;;;;5025081;28;20070;-89
2024/02/08 01:05:55;;;;;;;0.20;0.20;;;;;;;;;;5030032;28;20060;-90
2024/02/08 01:08:26;;;;;;;0.10;0.10;;;;;;;;;;5029612;28;20270;-88
2024/02/08 01:11:00;;;;;;;0.10;0.10;;;;;;;;;;5021810;28;20449;-88
2024/02/08 01:13:31;;;;;;;0.10;0.10;;;;;;;;;;5023586;28;20054;-89
2024/02/08 01:15:58;;;;;;;0.10;0.10;;;;;;;;;;5024712;28;20046;-89
2024/02/08 01:18:27;;;;;;;0.10;0.10;;;;;;;;;;5026765;28;20089;-89
2024/02/08 01:20:55;;;;;;;0.10;0.10;;;;;;;;;;5036876;28;20057;-90
2024/02/08 01:23:22;;;;;;;0.10;0.10;;;;;;;;;;5029316;28;20050;-89
2024/02/08 01:25:49;;;;;;;0.10;0.10;;;;;;;;;;5026959;28;20050;-88
2024/02/08 01:28:18;;;;;;;0.10;0.10;;;;;;;;;;5027847;28;20089;-88
2024/02/08 01:30:46;;;;;;;0.10;0.10;;;;;;;;;;5034199;28;20039;-90
2024/02/08 01:33:15;;;;;;;0.10;0.10;;;;;;;;;;5035870;28;20042;-88
2024/02/08 01:35:43;;;;;;;0.10;0.10;;;;;;;;;;5034767;28;20481;-89
2024/02/08 01:38:16;;;;;;;0.20;0.20;;;;;;;;;;5029459;28;20064;-89
2024/02/08 01:40:44;;;;;;;0.20;0.20;;;;;;;;;;5023214;28;20149;-89
2024/02/08 01:43:11;;;;;;;0.17;0.17;;;;;;;;;;5021192;28;20330;-89
2024/02/08 01:45:41;;;;;;;0.10;0.10;;;;;;;;;;5021718;28;20050;-91
2024/02/08 01:48:15;;;;;;;0.10;0.10;;;;;;;;;;5020692;28;20053;-89
2024/02/08 01:50:56;;;;;;;0.10;0.10;;;;;;;;;;5021536;28;20081;-90
2024/02/08 01:53:28;;;;;;;0.20;0.20;;;;;;;;;;5023131;28;20054;-88
2024/02/08 01:55:59;;;;;;;0.20;0.20;;;;;;;;;;5021955;28;20054;-88
2024/02/08 01:58:28;;;;;;;0.10;0.10;;;;;;;;;;5021039;28;20053;-88
2024/02/08 02:00:59;;;;;;;0.10;0.10;;;;;;;;;;5020866;28;20053;-88
2024/02/08 02:03:31;;;;;;;0.10;0.10;;;;;;;;;;5020914;28;20208;-89
2024/02/08 02:05:59;;;;;;;0.10;0.10;;;;;;;;;;5023114;28;20053;-88
2024/02/08 02:08:35;;;;;;;0.20;0.20;;;;;;;;;;5022051;28;20050;-89
2024/02/08 02:11:21;;;;;;;0.38;0.38;;;;;;;;;;5021578;28;20046;-88
2024/02/08 02:13:51;;;;;;;0.20;0.20;;;;;;;;;;5021375;28;20050;-88
2024/02/08 02:16:23;;;;;;;0.20;0.20;;;;;;;;;;5022081;28;20461;-89
2024/02/08 02:18:56;;;;;;;0.20;0.20;;;;;;;;;;5023030;28;20061;-89
2024/02/08 02:21:37;;;;;;;;;;;;;;;;;;5009120;28;20216;-88
2024/02/08 02:24:10;;;;;;;0.20;0.20;;;;;;;;;;5021938;28;19985;-87
2024/02/08 02:26:52;;;;;;;0.10;0.10;;;;;;;;;;5015793;28;20076;-88
2024/02/08 02:29:21;;;;;;;0.38;0.38;;;;;;;;;;5020365;28;20382;-88
2024/02/08 02:31:50;;;;;;;0.17;0.17;;;;;;;;;;5028973;28;20396;-87
2024/02/08 02:34:18;;;;;;;0.13;0.13;;;;;;;;;;5029207;28;20050;-88
2024/02/08 02:36:59;;;;;;;0.20;0.20;;;;;;;;;;5026932;28;20068;-87
2024/02/08 02:39:34;;;;;;;0.10;0.10;;;;;;;;;;5023145;28;20061;-89
2024/02/08 02:42:06;;;;;;;0.20;0.20;;;;;;;;;;5020635;28;20064;-88
2024/02/08 02:44:36;;;;;;;0.17;0.17;;;;;;;;;;5022415;28;20306;-89
2024/02/08 02:47:06;;;;;;;0.13;0.13;;;;;;;;;;5020084;28;20087;-89
2024/02/08 02:49:36;;;;;;;0.10;0.10;;;;;;;;;;5018542;28;20056;-88
2024/02/08 02:52:08;;;;;;;0.10;0.10;;;;;;;;;;5022792;28;20349;-88
2024/02/08 02:54:39;;;;;;;0.75;0.75;;;;;;;;;;5020490;28;20058;-89
2024/02/08 02:57:10;;;;;;;0.20;0.20;;;;;;;;;;5021338;28;20065;-92
2024/02/08 02:59:38;;;;;;;0.17;0.17;;;;;;;;;;5021020;28;20062;-91
2024/02/08 03:02:08;;;;;;;0.10;0.10;;;;;;;;;;5020524;28;20050;-90
2024/02/08 03:04:35;;;;;;;0.10;0.10;;;;;;;;;;5022176;28;20064;-91
2024/02/08 03:07:04;;;;;;;0.10;0.10;;;;;;;;;;5031763;28;20037;-91
2024/02/08 03:09:34;;;;;;;0.20;0.20;;;;;;;;;;5034433;28;20050;-90
2024/02/08 03:12:01;;;;;;;0.20;0.20;;;;;;;;;;5026776;28;20133;-88
2024/02/08 03:14:28;;;;;;;0.13;0.13;;;;;;;;;;5023578;28;20112;-91
2024/02/08 03:17:00;;;;;;;0.10;0.10;;;;;;;;;;5025220;28;20057;-91
2024/02/08 03:19:28;;;;;;;0.10;0.10;;;;;;;;;;5007358;28;20041;-92
2024/02/08 03:21:56;;;;;;;0.13;0.13;;;;;;;;;;5025511;28;20054;-92
2024/02/08 03:24:25;;;;;;;0.20;0.20;;;;;;;;;;5009502;28;20080;-92
2024/02/08 03:26:55;;;;;;;0.10;0.10;;;;;;;;;;5023954;28;20115;-92
2024/02/08 03:29:23;;;;;;;0.15;0.15;;;;;;;;;;5008018;28;20073;-92
2024/02/08 03:31:52;;;;;;;0.10;0.10;;;;;;;;;;5016896;28;20141;-89
2024/02/08 03:34:23;;;;;;;0.10;0.10;;;;;;;;;;5018181;28;20105;-91
2024/02/08 03:36:51;;;;;;;0.20;0.20;;;;;;;;;;5028475;28;20344;-91
2024/02/08 03:39:28;;;;;;;0.13;0.13;;;;;;;;;;5005637;28;20046;-92
2024/02/08 03:42:00;;;;;;;0.20;0.20;;;;;;;;;;5022505;28;20058;-92
2024/02/08 03:44:30;;;;;;;0.10;0.10;;;;;;;;;;5016513;28;20053;-90
2024/02/08 03:47:03;;;;;;;0.10;0.10;;;;;;;;;;5018124;28;20112;-92
2024/02/08 03:49:31;;;;;;;0.10;0.10;;;;;;;;;;5021583;28;20311;-91
2024/02/08 03:51:59;;;;;;;0.10;0.10;;;;;;;;;;5004581;28;20089;-91
2024/02/08 03:54:30;;;;;;;0.10;0.10;;;;;;;;;;5022283;28;20042;-91
2024/02/08 03:57:04;;;;;;;0.15;0.15;;;;;;;;;;5011563;28;20096;-91
2024/02/08 03:59:40;;;;;;;0.10;0.10;;;;;;;;;;5029032;28;20128;-90
2024/02/08 04:02:11;;;;;;;0.10;0.10;;;;;;;;;;5027659;28;20057;-92
2024/02/08 04:04:59;;;;;;;0.10;0.10;;;;;;;;;;5009074;28;20092;-90
2024/02/08 04:55:27;;;;;;;0.10;0.10;;;;;;;;;;5025494;28;20060;-92
2024/02/08 04:57:55;;;;;;;0.10;0.10;;;;;;;;;;5026793;28;20061;-91
2024/02/08 05:00:45;;;;;;;0.10;0.10;;;;;;;;;;5026833;28;20148;-91
2024/02/08 05:03:16;;;;;;;0.10;0.10;;;;;;;;;;5013916;28;20092;-91
2024/02/08 05:05:46;;;;;;;0.10;0.10;;;;;;;;;;5006509;28;20084;-91
2024/02/08 05:08:15;;;;;;;0.10;0.10;;;;;;;;;;5011649;28;20049;-92
2024/02/08 05:11:18;;;;;;;0.10;0.10;;;;;;;;;;5036683;28;20097;-91
2024/02/08 05:15:06;;;;;;;;;;;;;;;;;;;;;
2024/02/08 05:17:35;;;;;;;0.20;0.20;;;;;;;;;;4931891;29;20056;-90
2024/02/08 05:20:04;;;;;;;0.20;0.20;;;;;;;;;;5006781;28;20088;-91
2024/02/08 05:22:32;;;;;;;0.10;0.10;;;;;;;;;;5011461;28;20050;-92
2024/02/08 05:25:00;;;;;;;0.10;0.10;;;;;;;;;;5009965;28;20057;-92
2024/02/08 05:27:32;;;;;;;0.10;0.10;;;;;;;;;;5009318;28;20061;-92
2024/02/08 05:29:59;;;;;;;0.00;0.00;;;;;;;;;;5022315;28;20136;-91
2024/02/08 05:32:28;;;;;;;0.10;0.10;;;;;;;;;;5006017;28;20050;-90
2024/02/08 05:35:00;;;;;;;0.15;0.15;;;;;;;;;;5005776;28;20049;-90
2024/02/08 05:37:29;;;;;;;0.20;0.20;;;;;;;;;;5006449;28;20050;-91
2024/02/08 05:39:57;;;;;;;0.10;0.10;;;;;;;;;;5006551;28;20381;-91
2024/02/08 05:42:26;;;;;;;0.10;0.10;;;;;;;;;;5015069;28;20057;-90
2024/02/08 05:45:18;;;;;;;0.10;0.10;;;;;;;;;;5020366;28;20046;-91
2024/02/08 05:47:48;;;;;;;0.10;0.10;;;;;;;;;;5023587;28;20064;-90
2024/02/08 05:50:24;;;;;;;0.20;0.20;;;;;;;;;;5005434;28;20084;-92
2024/02/08 05:52:57;;;;;;;0.10;0.10;;;;;;;;;;5006396;28;20101;-90
2024/02/08 05:55:34;;;;;;;0.20;0.20;;;;;;;;;;5005014;28;20056;-91
2024/02/08 05:58:06;;;;;;;0.10;0.10;;;;;;;;;;5006038;28;20065;-90
2024/02/08 06:00:45;;;;;;;0.20;0.20;;;;;;;;;;5006143;28;20049;-91
2024/02/08 06:03:25;;;;;;;0.10;0.10;;;;;;;;;;5005888;28;20053;-91
2024/02/08 06:06:06;;;;;;;0.10;0.10;;;;;;;;;;5004318;28;20105;-90
2024/02/08 06:08:39;;;;;;;0.10;0.10;;;;;;;;;;5004003;28;20062;-90
2024/02/08 06:11:14;;;;;;;0.20;0.20;;;;;;;;;;5019737;28;20161;-90
2024/02/08 06:13:50;;;;;;;0.10;0.10;;;;;;;;;;5003230;28;20483;-90
2024/02/08 06:16:26;;;;;;;0.20;0.20;;;;;;;;;;5001142;28;20049;-91
2024/02/08 06:18:57;;;;;;;;;;;;;;;;;;5000720;28;20587;-91
2024/02/08 06:21:39;;;;;;;0.20;0.20;;;;;;;;;;5000088;28;20520;-90
2024/02/08 06:27:03;;;;;;;0.20;0.20;;;;;;;;;;5031624;28;20117;-91
2024/02/08 06:29:53;;;;;;;0.10;0.10;;;;;;;;;;5011551;28;20220;-91
2024/02/08 06:35:08;;;;;;;0.10;0.10;;;;;;;;;;5021962;28;20050;-90
2024/02/08 06:37:45;;;;;;;0.10;0.10;;;;;;;;;;5011111;28;20144;-90
2024/02/08 06:40:21;;;;;;;0.10;0.10;;;;;;;;;;5001010;28;20074;-89
2024/02/08 06:45:48;;;;;;;0.10;0.10;;;;;;;;;;5019708;28;20054;-90
2024/02/08 07:39:21;;;;;;;0.13;0.13;;;;;;;;;;5015521;28;20054;-91
2024/02/08 07:41:40;;;;;;;0.13;0.13;;;;;;;;;;5018292;28;20092;-90
2024/02/08 07:44:09;;;;;;;0.10;0.10;;;;;;;;;;5018656;28;20117;-90
2024/02/08 07:46:50;;;;;;;0.00;0.00;;;;;;;;;;5019871;28;20034;-90
2024/02/08 07:49:17;;;;;;;0.10;0.10;;;;;;;;;;5021775;28;20064;-90
2024/02/08 07:51:50;;;;;;;0.10;0.10;;;;;;;;;;5018813;28;20172;-90
2024/02/08 07:54:21;;;;;;;0.10;0.10;;;;;;;;;;5028110;28;20050;-91
2024/02/08 07:56:53;;;;;;;0.10;0.10;;;;;;;;;;5028722;28;20220;-90
2024/02/08 07:59:26;;;;;;;0.20;0.20;;;;;;;;;;5030898;28;20064;-91
2024/02/08 15:32:30;;;;;;;0.17;0.17;;;;;;;;;;5019737;28;20664;-88
2024/02/08 15:38:35;;;;;;;0.20;0.20;;;;;;;;;;5016487;28;20049;-89
2024/02/08 15:41:24;;;;;;;0.10;0.10;;;;;;;;;;5002914;28;20124;-90
2024/02/08 15:44:14;;;;;;;0.10;0.10;;;;;;;;;;5000725;28;20065;-89
2024/02/08 15:46:56;;;;;;;0.10;0.10;;;;;;;;;;4995901;28;20056;-87
2024/02/08 15:49:28;;;;;;;0.20;0.20;;;;;;;;;;4999953;28;20077;-90
2024/02/08 15:52:14;;;;;;;1.40;1.33;;;;;;;;;;4999431;28;20045;-88
2024/02/08 15:54:55;;;;;;;0.77;0.75;;;;;;;;;;4999551;28;20060;-89
2024/02/08 15:57:32;;;;;;;1.15;1.13;;;;;;;;;;5002332;28;20399;-89
2024/02/08 16:00:33;;;;;;;0.20;0.20;;;;;;;;;;5003869;28;20412;-90
2024/02/08 16:03:02;;;;;;;0.20;0.20;;;;;;;;;;5019720;28;20050;-89
2024/02/08 16:05:44;;;;;;;0.20;0.20;;;;;;;;;;5002953;28;20058;-90
2024/02/08 16:08:14;;;;;;;0.10;0.10;;;;;;;;;;5001962;28;20386;-89
2024/02/08 16:10:45;;;;;;;0.20;0.20;;;;;;;;;;5021379;28;20045;-90
2024/02/08 16:13:34;;;;;;;0.30;0.30;;;;;;;;;;5006372;28;20226;-90
2024/02/08 16:16:17;;;;;;;0.10;0.10;;;;;;;;;;5006856;28;20042;-90
2024/02/08 16:19:01;;;;;;;0.10;0.10;;;;;;;;;;5007282;28;20069;-89
2024/02/08 16:21:47;;;;;;;0.30;0.30;;;;;;;;;;5026865;23;20050;-90
2024/02/08 16:24:21;;;;;;;1.20;0.90;;;;;;;;;;5011874;28;20057;-91
2024/02/08 16:26:56;;;;;;;0.17;0.17;;;;;;;;;;5012463;28;20201;-93
2024/02/08 16:29:34;;;;;;;1.90;0.60;;;;;;;;;;5008340;28;20070;-94
2024/02/08 16:32:19;;;;;;;0.20;0.20;;;;;;;;;;5006574;28;20050;-92
2024/02/08 16:35:14;;;;;;;0.47;0.47;;;;;;;;;;5006943;28;20110;-92
2024/02/08 16:37:51;;;;;;;0.25;0.25;;;;;;;;;;5008489;28;20050;-91
2024/02/08 16:40:29;;;;;;;0.13;0.13;;;;;;;;;;5006761;28;20054;-93
2024/02/08 16:43:12;;;;;;;0.10;0.10;;;;;;;;;;5009619;28;20385;-93
2024/02/08 16:45:58;;;;;;;0.10;0.10;;;;;;;;;;5006148;28;20053;-92
2024/02/08 16:48:33;;;;;;;1.38;0.40;;;;;;;;;;5008809;28;20101;-94
2024/02/08 16:51:09;;;;;;;0.50;0.50;;;;;;;;;;5007918;28;20423;-92
2024/02/08 17:13:58;;;;;;;0.30;0.28;;;;;;;;;;4819118;23;20049;-93
2024/02/08 17:16:35;;;;;;;7.28;1.85;;;;;;;;;;5019365;28;20042;-90
2024/02/08 17:24:46;;;;;;;1.25;0.98;;;;;;;;;;5038187;28;20060;-93
2024/02/08 17:30:04;;;;;;;0.27;0.27;;;;;;;;;;5037026;28;20503;-93
2024/02/08 17:32:42;;;;;;;5.80;4.93;;;;;;;;;;5019862;28;20073;-92
2024/02/08 17:35:15;;;;;;;0.50;0.50;;;;;;;;;;5019485;28;20084;-92
2024/02/08 17:37:48;;;;;;;0.20;0.20;;;;;;;;;;5019342;28;20069;-92
2024/02/08 17:40:18;;;;;;;0.95;0.52;;;;;;;;;;5038264;28;20117;-92
2024/02/08 17:43:07;;;;;;;0.88;0.88;;;;;;;;;;5038120;28;20042;-93
2024/02/08 17:46:09;;;;;;;0.20;0.20;;;;;;;;;;5038573;28;20405;-94
2024/02/08 17:48:32;;;;;;;0.60;0.50;;;;;;;;;;5035697;28;20052;-92
2024/02/08 17:51:07;;;;;;;1.27;1.17;;;;;;;;;;5021157;28;20038;-92
2024/02/08 17:53:35;;;;;;;0.95;0.82;;;;;;;;;;5021447;28;20038;-92
2024/02/08 17:56:09;;;;;;;2.25;1.00;;;;;;;;;;5020358;28;20038;-93
2024/02/08 17:58:39;;;;;;;;;;;;;;;;;;5021300;28;20258;-93
2024/02/08 18:01:15;;;;;;;0.30;0.28;;;;;;;;;;5037244;28;19984;-93
2024/02/08 18:03:46;;;;;;;6.47;2.15;;;;;;;;;;5036009;28;20045;-93
2024/02/08 18:06:16;;;;;;;0.50;0.50;;;;;;;;;;5019879;28;20081;-92
2024/02/08 18:08:46;;;;;;;3.55;2.35;;;;;;;;;;5035959;28;20073;-92
2024/02/08 18:11:16;;;;;;;0.25;0.25;;;;;;;;;;5018482;28;20071;-93
2024/02/08 18:13:43;;;;;;;0.95;0.80;;;;;;;;;;5032815;28;20065;-92
2024/02/08 18:16:13;;;;;;;0.50;0.50;;;;;;;;;;5036917;28;20065;-91
2024/02/08 18:18:47;;;;;;;12.68;3.83;;;;;;;;;;5037883;28;20041;-91
2024/02/08 18:21:19;;;;;;;0.45;0.45;;;;;;;;;;5035880;28;20038;-93
2024/02/08 18:23:53;;;;;;;0.75;0.75;;;;;;;;;;5036561;28;20065;-93
2024/02/08 18:26:27;;;;;;;1.17;0.90;;;;;;;;;;5037936;28;20041;-93
2024/02/08 18:28:56;;;;;;;0.17;0.17;;;;;;;;;;5037786;28;20044;-92
2024/02/08 18:31:26;;;;;;;1.38;0.70;;;;;;;;;;5036676;28;20049;-92
2024/02/08 18:34:00;;;;;;;0.20;0.20;;;;;;;;;;5035537;28;20102;-93
2024/02/08 18:36:30;;;;;;;3.20;0.70;;;;;;;;;;5038109;28;20030;-92
2024/02/08 18:38:58;;;;;;;5.85;0.98;;;;;;;;;;5034961;28;20034;-94
2024/02/08 18:41:29;;;;;;;0.30;0.30;;;;;;;;;;5034419;28;20050;-91
2024/02/08 18:44:04;;;;;;;0.32;0.32;;;;;;;;;;5033948;28;20054;-94
2024/02/08 18:46:32;;;;;;;0.40;0.40;;;;;;;;;;5034767;28;20061;-93
2024/02/08 18:49:02;;;;;;;1.92;1.10;;;;;;;;;;5033977;28;20030;-92
2024/02/08 18:51:44;;;;;;;4.72;1.73;;;;;;;;;;5034108;28;20084;-94
2024/02/08 18:54:28;;;;;;;0.20;0.20;;;;;;;;;;5035142;28;20170;-93
2024/02/08 18:57:03;;;;;;;0.85;0.85;;;;;;;;;;5033627;28;20061;-93
2024/02/08 18:59:35;;;;;;;1.55;1.38;;;;;;;;;;5033179;28;20117;-92
2024/02/08 19:02:07;;;;;;;3.80;0.82;;;;;;;;;;5034584;28;20045;-93
2024/02/08 19:04:37;;;;;;;11.88;1.25;;;;;;;;;;5035594;28;20033;-93
2024/02/08 19:07:11;;;;;;;0.45;0.45;;;;;;;;;;5034178;28;20113;-92
2024/02/08 19:09:41;;;;;;;3.63;2.25;;;;;;;;;;5035361;28;20402;-93
2024/02/08 19:12:10;;;;;;;7.13;1.42;;;;;;;;;;5036203;28;20050;-92
2024/02/08 19:14:37;;;;;;;0.95;0.80;;;;;;;;;;5035391;28;20156;-92
2024/02/08 19:17:07;;;;;;;6.72;1.77;;;;;;;;;;5036273;28;20054;-92
2024/02/08 19:19:52;;;;;;;5.32;0.88;;;;;;;;;;5030384;28;20069;-92
2024/02/08 19:22:22;;;;;;;0.43;0.43;;;;;;;;;;5032721;28;20038;-94
2024/02/08 19:24:53;;;;;;;1.02;0.95;;;;;;;;;;5035469;28;20109;-92
2024/02/08 19:27:21;;;;;;;2.58;2.10;;;;;;;;;;5035425;28;20264;-92
2024/02/08 19:29:53;;;;;;;0.63;0.63;;;;;;;;;;5035467;28;20046;-93
2024/02/08 19:32:23;;;;;;;0.95;0.80;;;;;;;;;;5035610;28;20041;-94
2024/02/08 19:34:51;;;;;;;2.08;1.38;;;;;;;;;;5034978;28;20068;-93
2024/02/08 19:37:22;;;;;;;0.43;0.43;;;;;;;;;;5035047;28;20056;-93
2024/02/08 19:39:58;;;;;;;2.00;0.75;;;;;;;;;;5035282;28;20049;-91
2024/02/08 19:42:31;;;;;;;0.55;0.55;;;;;;;;;;5031585;28;20034;-91
2024/02/08 19:45:15;;;;;;;0.88;0.68;;;;;;;;;;5007356;28;20057;-92
2024/02/08 19:47:46;;;;;;;2.10;1.40;;;;;;;;;;5014346;28;20048;-91
2024/02/08 19:50:16;;;;;;;0.50;0.50;;;;;;;;;;5013945;28;20070;-93
2024/02/08 19:52:47;;;;;;;0.30;0.30;;;;;;;;;;5008206;28;20061;-92
2024/02/08 19:55:29;;;;;;;0.20;0.20;;;;;;;;;;5008364;28;20191;-93
2024/02/08 19:58:00;;;;;;;0.45;0.45;;;;;;;;;;5008022;28;20046;-94
2024/02/08 20:00:28;;;;;;;1.17;1.00;;;;;;;;;;5006618;28;20104;-92
2024/02/08 20:03:07;;;;;;;17.90;0.85;;;;;;;;;;5026148;28;20177;-93
2024/02/08 20:05:37;;;;;;;3.03;1.95;;;;;;;;;;5006971;28;20054;-93
2024/02/08 20:08:09;;;;;;;0.75;0.63;;;;;;;;;;5009041;28;20050;-92
2024/02/08 20:10:39;;;;;;;1.50;1.15;;;;;;;;;;5007631;28;20058;-92
2024/02/08 20:13:17;;;;;;;1.20;0.60;;;;;;;;;;5009722;28;20058;-92
2024/02/08 20:15:52;;;;;;;2.28;1.65;;;;;;;;;;5005445;28;20054;-92
2024/02/08 20:18:20;;;;;;;1.00;0.95;;;;;;;;;;5005342;28;20054;-92
2024/02/08 20:20:56;;;;;;;1.35;1.25;;;;;;;;;;5007167;28;20097;-93
2024/02/08 20:23:33;;;;;;;0.45;0.45;;;;;;;;;;5006624;28;20054;-92
2024/02/08 20:26:08;;;;;;;2.47;0.73;;;;;;;;;;5006525;28;20050;-92
2024/02/08 20:28:36;;;;;;;2.20;0.70;;;;;;;;;;5008393;28;20050;-92
2024/02/08 20:31:07;;;;;;;3.17;0.98;;;;;;;;;;5012033;28;20050;-91
2024/02/08 20:33:37;;;;;;;0.75;0.75;;;;;;;;;;5011706;28;20058;-93
2024/02/08 20:36:08;;;;;;;1.35;1.23;;;;;;;;;;5008496;28;20058;-92
2024/02/08 20:38:37;;;;;;;1.10;0.70;;;;;;;;;;5014765;28;20046;-90
2024/02/08 20:41:06;;;;;;;0.20;0.20;;;;;;;;;;5016085;28;20088;-93
2024/02/08 20:43:36;;;;;;;0.32;0.32;;;;;;;;;;5011426;28;20081;-92
2024/02/08 20:46:05;;;;;;;1.00;0.85;;;;;;;;;;5012684;28;20242;-89
2024/02/08 20:48:36;;;;;;;1.27;0.63;;;;;;;;;;5012460;28;20225;-92
2024/02/08 20:51:07;;;;;;;1.42;1.02;;;;;;;;;;5017536;28;20053;-92
2024/02/08 20:53:34;;;;;;;0.38;0.15;;;;;;;;;;5018026;28;20034;-91
2024/02/08 20:56:03;;;;;;;1.02;0.85;;;;;;;;;;5017827;28;20080;-92
2024/02/08 20:58:31;;;;;;;1.30;1.08;;;;;;;;;;5011544;28;20054;-92
2024/02/08 21:01:01;;;;;;;0.70;0.70;;;;;;;;;;5008751;28;20412;-92
2024/02/08 21:03:31;;;;;;;0.30;0.30;;;;;;;;;;5012525;28;20057;-92
2024/02/08 21:06:02;;;;;;;1.02;1.02;;;;;;;;;;4995948;28;20050;-93
2024/02/08 21:08:30;;;;;;;1.15;1.00;;;;;;;;;;5008506;28;20261;-93
2024/02/08 21:11:04;;;;;;;0.10;0.10;;;;;;;;;;5012535;28;20483;-91
2024/02/08 21:13:46;;;;;;;1.88;1.42;;;;;;;;;;5010187;28;20101;-93
2024/02/08 21:16:19;;;;;;;5.10;2.65;;;;;;;;;;5011914;28;20510;-93
2024/02/08 21:18:47;;;;;;;1.35;0.65;;;;;;;;;;5007545;28;20085;-92
2024/02/08 21:21:15;;;;;;;1.15;1.05;;;;;;;;;;5007296;28;20113;-93
2024/02/08 21:23:48;;;;;;;1.77;0.98;;;;;;;;;;5006691;28;20054;-92
2024/02/08 21:26:54;;;;;;;1.75;0.80;;;;;;;;;;5010225;28;20065;-92
2024/02/08 21:29:37;;;;;;;3.55;1.30;;;;;;;;;;5010225;28;20042;-93
2024/02/08 21:32:09;;;;;;;4.15;2.40;;;;;;;;;;5010529;28;20046;-91
2024/02/08 21:34:43;;;;;;;0.20;0.20;;;;;;;;;;5010519;28;20042;-92
2024/02/08 21:37:14;;;;;;;1.30;1.17;;;;;;;;;;5010871;28;20149;-92
2024/02/08 21:40:00;;;;;;;;;;;;;;;;;;;;;
2024/02/08 21:42:44;;;;;;;3.97;2.55;;;;;;;;;;5013577;28;20050;-93
2024/02/08 21:45:20;;;;;;;2.58;0.75;;;;;;;;;;5011319;28;20054;-93
2024/02/08 21:48:13;;;;;;;2.63;0.95;;;;;;;;;;5013078;28;20038;-93
2024/02/08 21:50:53;;;;;;;2.03;1.30;;;;;;;;;;5016721;28;20054;-93
2024/02/08 21:53:26;;;;;;;2.13;1.20;;;;;;;;;;5012256;28;20146;-92
2024/02/08 21:56:03;;;;;;;0.25;0.25;;;;;;;;;;5012891;28;20042;-88
2024/02/08 21:58:35;;;;;;;0.65;0.65;;;;;;;;;;5017135;28;20037;-91
2024/02/08 22:01:02;;;;;;;2.53;1.92;;;;;;;;;;5016085;28;20050;-93
2024/02/08 22:03:46;;;;;;;1.95;1.40;;;;;;;;;;5007657;28;20042;-92
2024/02/08 22:06:19;;;;;;;0.47;0.45;;;;;;;;;;5007458;28;20072;-91
2024/02/08 22:08:50;;;;;;;1.33;0.90;;;;;;;;;;5008278;28;20399;-93
2024/02/08 22:11:18;;;;;;;0.38;0.38;;;;;;;;;;5007883;28;20535;-92
2024/02/08 22:13:48;;;;;;;1.80;1.58;;;;;;;;;;5010943;28;20089;-90
2024/02/08 22:16:18;;;;;;;2.70;1.88;;;;;;;;;;5009320;28;20399;-92
2024/02/08 22:18:48;;;;;;;2.05;1.33;;;;;;;;;;5011444;28;20063;-91
2024/02/08 22:21:16;;;;;;;1.85;1.67;;;;;;;;;;5018069;28;20069;-91
2024/02/08 22:23:44;;;;;;;0.10;0.10;;;;;;;;;;5013776;28;20406;-92
2024/02/08 22:26:12;;;;;;;3.28;1.50;;;;;;;;;;5008038;28;20054;-91
2024/02/08 22:28:41;;;;;;;2.67;1.02;;;;;;;;;;5006608;28;20065;-92
2024/02/08 22:31:10;;;;;;;1.00;0.75;;;;;;;;;;5005297;28;20054;-92
2024/02/08 22:33:38;;;;;;;0.65;0.65;;;;;;;;;;5004674;28;20050;-91
2024/02/08 22:36:09;;;;;;;3.00;1.60;;;;;;;;;;5004957;28;20092;-92
2024/02/08 22:38:38;;;;;;;6.95;1.30;;;;;;;;;;5006938;28;20086;-91
2024/02/08 22:41:06;;;;;;;1.98;1.48;;;;;;;;;;5015071;28;20046;-92
2024/02/08 22:43:38;;;;;;;1.52;1.20;;;;;;;;;;5013823;28;20110;-92
2024/02/08 22:46:08;;;;;;;0.40;0.40;;;;;;;;;;5010722;28;20130;-92
2024/02/08 22:48:38;;;;;;;4.10;2.15;;;;;;;;;;5004199;28;20050;-91
2024/02/08 22:51:06;;;;;;;0.22;0.22;;;;;;;;;;5004344;28;20050;-92
2024/02/08 22:53:34;;;;;;;3.25;1.90;;;;;;;;;;5005436;28;20050;-93
2024/02/08 22:56:03;;;;;;;0.10;0.10;;;;;;;;;;5004779;28;20137;-93
2024/02/08 22:58:30;;;;;;;0.50;0.43;;;;;;;;;;5005389;28;20073;-92
2024/02/08 23:01:24;;;;;;;3.22;2.28;;;;;;;;;;5007169;28;20046;-92
2024/02/08 23:03:55;;;;;;;3.83;0.22;;;;;;;;;;5007106;28;20050;-92
2024/02/08 23:06:24;;;;;;;1.08;0.93;;;;;;;;;;5007350;28;20064;-91
2024/02/08 23:08:54;;;;;;;0.10;0.10;;;;;;;;;;5006051;28;20056;-92
2024/02/08 23:11:23;;;;;;;0.93;0.88;;;;;;;;;;5007416;28;20101;-92
2024/02/08 23:13:51;;;;;;;0.25;0.25;;;;;;;;;;5017789;28;20078;-92
2024/02/08 23:16:20;;;;;;;0.20;0.20;;;;;;;;;;5003177;28;20418;-93
2024/02/08 23:18:52;;;;;;;0.55;0.55;;;;;;;;;;5006574;28;20054;-92
2024/02/08 23:21:24;;;;;;;0.75;0.70;;;;;;;;;;5005962;28;20428;-92
2024/02/08 23:23:52;;;;;;;1.60;1.15;;;;;;;;;;5007103;28;20058;-92
2024/02/08 23:26:22;;;;;;;0.85;0.85;;;;;;;;;;5007890;28;20112;-92
2024/02/08 23:28:52;;;;;;;0.95;0.68;;;;;;;;;;5005543;28;20054;-92
2024/02/08 23:31:27;;;;;;;0.30;0.30;;;;;;;;;;5012127;28;20054;-92
2024/02/08 23:34:30;;;;;;;0.43;0.40;;;;;;;;;;5017846;28;20026;-90
2024/02/08 23:37:11;;;;;;;0.85;0.60;;;;;;;;;;5009846;28;20038;-91
2024/02/08 23:39:41;;;;;;;4.53;0.70;;;;;;;;;;5006043;28;20117;-93
2024/02/08 23:42:14;;;;;;;5.43;1.00;;;;;;;;;;5003782;28;20126;-90
2024/02/08 23:44:57;;;;;;;1.52;0.88;;;;;;;;;;5007860;28;20145;-93
2024/02/08 23:47:27;;;;;;;0.30;0.30;;;;;;;;;;5005864;28;20050;-92
2024/02/08 23:49:55;;;;;;;0.25;0.25;;;;;;;;;;5006981;28;20057;-92
2024/02/08 23:52:24;;;;;;;0.10;0.10;;;;;;;;;;5007173;28;20050;-92
2024/02/08 23:54:57;;;;;;;0.05;0.05;;;;;;;;;;5007473;28;20050;-91
2024/02/08 23:57:25;;;;;;;1.27;0.60;;;;;;;;;;5008995;28;20122;-92
2024/02/08 23:59:52;;;;;;;1.05;0.63;;;;;;;;;;5013899;28;20046;-92
